sensor_id;sensor_type;location;lat;lon;timestamp;pressure;altitude;pressure_sealevel;temperature;humidity
58243;BME280;50118;53.232;8.252;2023-07-13T00:00:24;101112.00;;;12.54;100.00
58243;BME280;50118;53.232;8.252;2023-07-13T00:02:50;101122.97;;;12.51;100.00
58243;BME280;50118;53.232;8.252;2023-07-13T00:05:19;101121.31;;;12.50;100.00
58243;BME280;50118;53.232;8.252;2023-07-13T00:07:45;101124.13;;;12.48;100.00
58243;BME280;50118;53.232;8.252;2023-07-13T00:10:14;101115.97;;;12.50;100.00
58243;BME280;50118;53.232;8.252;2023-07-13T00:12:40;101120.31;;;12.51;100.00
58243;BME280;50118;53.232;8.252;2023-07-13T00:15:11;101117.94;;;12.48;100.00
58243;BME280;50118;53.232;8.252;2023-07-13T00:17:37;101117.78;;;12.49;100.00
58243;BME280;50118;53.232;8.252;2023-07-13T00:20:05;101123.25;;;12.48;100.00
58243;BME280;50118;53.232;8.252;2023-07-13T00:22:31;101122.59;;;12.46;100.00
58243;BME280;50118;53.232;8.252;2023-07-13T00:24:56;101122.59;;;12.46;100.00
58243;BME280;50118;53.232;8.252;2023-07-13T00:27:23;101125.88;;;12.40;100.00
58243;BME280;50118;53.232;8.252;2023-07-13T00:29:48;101119.50;;;12.41;100.00
58243;BME280;50118;53.232;8.252;2023-07-13T00:32:14;101115.72;;;12.43;100.00
58243;BME280;50118;53.232;8.252;2023-07-13T00:34:39;101124.84;;;12.41;100.00
58243;BME280;50118;53.232;8.252;2023-07-13T00:37:06;101116.00;;;12.40;100.00
58243;BME280;50118;53.232;8.252;2023-07-13T00:39:35;101121.50;;;12.39;100.00
58243;BME280;50118;53.232;8.252;2023-07-13T00:42:02;101121.78;;;12.36;100.00
58243;BME280;50118;53.232;8.252;2023-07-13T00:44:28;101124.75;;;12.32;100.00
58243;BME280;50118;53.232;8.252;2023-07-13T00:46:54;101129.13;;;12.33;100.00
58243;BME280;50118;53.232;8.252;2023-07-13T00:49:23;101128.00;;;12.36;100.00
58243;BME280;50118;53.232;8.252;2023-07-13T00:51:53;101122.06;;;12.32;100.00
58243;BME280;50118;53.232;8.252;2023-07-13T00:54:26;101134.16;;;12.37;100.00
58243;BME280;50118;53.232;8.252;2023-07-13T00:56:55;101135.28;;;12.34;100.00
58243;BME280;50118;53.232;8.252;2023-07-13T00:59:24;101139.81;;;12.33;100.00
58243;BME280;50118;53.232;8.252;2023-07-13T01:01:49;101141.16;;;12.38;100.00
58243;BME280;50118;53.232;8.252;2023-07-13T01:04:17;101139.63;;;12.45;100.00
58243;BME280;50118;53.232;8.252;2023-07-13T01:06:43;101145.03;;;12.53;100.00
58243;BME280;50118;53.232;8.252;2023-07-13T01:09:10;101134.06;;;12.56;100.00
58243;BME280;50118;53.232;8.252;2023-07-13T01:11:36;101139.41;;;12.56;100.00
58243;BME280;50118;53.232;8.252;2023-07-13T01:14:02;101139.94;;;12.60;100.00
58243;BME280;50118;53.232;8.252;2023-07-13T01:16:31;101134.59;;;12.60;100.00
58243;BME280;50118;53.232;8.252;2023-07-13T01:18:57;101140.41;;;12.55;100.00
58243;BME280;50118;53.232;8.252;2023-07-13T01:21:24;101141.38;;;12.54;100.00
58243;BME280;50118;53.232;8.252;2023-07-13T01:23:50;101137.75;;;12.55;100.00
58243;BME280;50118;53.232;8.252;2023-07-13T01:26:16;101127.34;;;12.52;100.00
58243;BME280;50118;53.232;8.252;2023-07-13T01:28:41;101129.22;;;12.42;100.00
58243;BME280;50118;53.232;8.252;2023-07-13T01:31:08;101132.47;;;12.36;100.00
58243;BME280;50118;53.232;8.252;2023-07-13T01:33:36;101132.47;;;12.36;100.00
58243;BME280;50118;53.232;8.252;2023-07-13T01:36:01;101129.81;;;12.36;100.00
58243;BME280;50118;53.232;8.252;2023-07-13T01:38:27;101132.75;;;12.32;100.00
58243;BME280;50118;53.232;8.252;2023-07-13T01:40:53;101126.59;;;12.32;100.00
58243;BME280;50118;53.232;8.252;2023-07-13T01:43:19;101134.44;;;12.33;100.00
58243;BME280;50118;53.232;8.252;2023-07-13T01:45:48;101130.09;;;12.32;100.00
58243;BME280;50118;53.232;8.252;2023-07-13T01:48:13;101131.78;;;12.33;100.00
58243;BME280;50118;53.232;8.252;2023-07-13T01:50:39;101130.09;;;12.32;100.00
58243;BME280;50118;53.232;8.252;2023-07-13T01:53:05;101132.75;;;12.32;100.00
58243;BME280;50118;53.232;8.252;2023-07-13T01:55:31;101132.75;;;12.32;100.00
58243;BME280;50118;53.232;8.252;2023-07-13T01:57:57;101125.75;;;12.31;100.00
58243;BME280;50118;53.232;8.252;2023-07-13T02:00:22;101124.03;;;12.40;100.00
58243;BME280;50118;53.232;8.252;2023-07-13T02:02:48;101119.81;;;12.38;100.00
58243;BME280;50118;53.232;8.252;2023-07-13T02:05:17;101114.38;;;12.29;100.00
58243;BME280;50118;53.232;8.252;2023-07-13T02:07:43;101122.41;;;12.29;100.00
58243;BME280;50118;53.232;8.252;2023-07-13T02:10:09;101120.41;;;12.31;100.00
58243;BME280;50118;53.232;8.252;2023-07-13T02:12:36;101119.88;;;12.28;100.00
58243;BME280;50118;53.232;8.252;2023-07-13T02:15:03;101119.00;;;12.27;100.00
58243;BME280;50118;53.232;8.252;2023-07-13T02:17:29;101119.31;;;12.24;100.00
58243;BME280;50118;53.232;8.252;2023-07-13T02:19:54;101122.97;;;12.23;100.00
58243;BME280;50118;53.232;8.252;2023-07-13T02:22:21;101115.34;;;12.28;100.00
58243;BME280;50118;53.232;8.252;2023-07-13T02:24:47;101122.41;;;12.29;100.00
58243;BME280;50118;53.232;8.252;2023-07-13T02:27:12;101120.41;;;12.31;100.00
58243;BME280;50118;53.232;8.252;2023-07-13T02:29:40;101122.34;;;12.39;100.00
58243;BME280;50118;53.232;8.252;2023-07-13T02:32:06;101122.59;;;12.46;100.00
58243;BME280;50118;53.232;8.252;2023-07-13T02:34:32;101134.13;;;12.46;100.00
58243;BME280;50118;53.232;8.252;2023-07-13T02:36:58;101127.34;;;12.52;100.00
58243;BME280;50118;53.232;8.252;2023-07-13T02:39:23;101128.88;;;12.55;100.00
58243;BME280;50118;53.232;8.252;2023-07-13T02:41:48;101136.44;;;12.59;100.00
58243;BME280;50118;53.232;8.252;2023-07-13T02:44:14;101131.78;;;12.61;100.00
58243;BME280;50118;53.232;8.252;2023-07-13T02:46:40;101131.19;;;12.67;100.00
58243;BME280;50118;53.232;8.252;2023-07-13T02:49:06;101133.56;;;12.70;100.00
58243;BME280;50118;53.232;8.252;2023-07-13T02:51:31;101130.59;;;12.74;100.00
58243;BME280;50118;53.232;8.252;2023-07-13T02:54:02;101132.28;;;12.75;100.00
58243;BME280;50118;53.232;8.252;2023-07-13T02:56:30;101130.00;;;12.80;100.00
58243;BME280;50118;53.232;8.252;2023-07-13T02:58:56;101125.31;;;12.82;100.00
58243;BME280;50118;53.232;8.252;2023-07-13T03:01:22;101127.41;;;12.88;100.00
58243;BME280;50118;53.232;8.252;2023-07-13T03:03:49;101144.53;;;12.95;100.00
58243;BME280;50118;53.232;8.252;2023-07-13T03:06:15;101137.19;;;12.97;100.00
58243;BME280;50118;53.232;8.252;2023-07-13T03:08:42;101137.03;;;12.99;100.00
58243;BME280;50118;53.232;8.252;2023-07-13T03:11:15;101137.03;;;12.99;100.00
58243;BME280;50118;53.232;8.252;2023-07-13T03:13:42;101131.16;;;12.95;100.00
58243;BME280;50118;53.232;8.252;2023-07-13T03:16:09;101135.22;;;12.99;100.00
58243;BME280;50118;53.232;8.252;2023-07-13T03:18:35;101133.09;;;13.03;100.00
58243;BME280;50118;53.232;8.252;2023-07-13T03:21:01;101137.44;;;13.04;100.00
58243;BME280;50118;53.232;8.252;2023-07-13T03:23:32;101134.22;;;13.00;100.00
58243;BME280;50118;53.232;8.252;2023-07-13T03:26:06;101132.78;;;13.06;100.00
58243;BME280;50118;53.232;8.252;2023-07-13T03:28:33;101134.00;;;13.12;100.00
58243;BME280;50118;53.232;8.252;2023-07-13T03:31:00;101139.34;;;13.12;100.00
58243;BME280;50118;53.232;8.252;2023-07-13T03:33:25;101143.25;;;13.17;100.00
58243;BME280;50118;53.232;8.252;2023-07-13T03:35:51;101132.78;;;13.24;100.00
58243;BME280;50118;53.232;8.252;2023-07-13T03:38:16;101133.47;;;13.26;100.00
58243;BME280;50118;53.232;8.252;2023-07-13T03:40:42;101142.78;;;13.22;100.00
58243;BME280;50118;53.232;8.252;2023-07-13T03:43:08;101138.97;;;13.24;100.00
58243;BME280;50118;53.232;8.252;2023-07-13T03:45:33;101150.22;;;13.28;100.00
58243;BME280;50118;53.232;8.252;2023-07-13T03:47:58;101140.63;;;13.35;100.00
58243;BME280;50118;53.232;8.252;2023-07-13T03:50:24;101149.63;;;13.34;100.00
58243;BME280;50118;53.232;8.252;2023-07-13T03:52:50;101154.97;;;13.34;100.00
58243;BME280;50118;53.232;8.252;2023-07-13T03:55:16;101156.03;;;13.41;100.00
58243;BME280;50118;53.232;8.252;2023-07-13T03:57:41;101149.69;;;13.42;100.00
58243;BME280;50118;53.232;8.252;2023-07-13T04:00:07;101154.06;;;13.43;100.00
58243;BME280;50118;53.232;8.252;2023-07-13T04:02:33;101147.19;;;13.41;100.00
58243;BME280;50118;53.232;8.252;2023-07-13T04:04:58;101164.00;;;13.33;100.00
58243;BME280;50118;53.232;8.252;2023-07-13T04:07:24;101164.44;;;13.47;100.00
58243;BME280;50118;53.232;8.252;2023-07-13T04:09:49;101160.78;;;13.48;100.00
58243;BME280;50118;53.232;8.252;2023-07-13T04:12:15;101165.31;;;13.47;100.00
58243;BME280;50118;53.232;8.252;2023-07-13T04:14:40;101157.97;;;13.49;100.00
58243;BME280;50118;53.232;8.252;2023-07-13T04:17:05;101169.19;;;13.53;100.00
58243;BME280;50118;53.232;8.252;2023-07-13T04:19:31;101165.53;;;13.54;100.00
58243;BME280;50118;53.232;8.252;2023-07-13T04:21:56;101161.00;;;13.54;100.00
58243;BME280;50118;53.232;8.252;2023-07-13T04:24:22;101164.91;;;13.60;100.00
58243;BME280;50118;53.232;8.252;2023-07-13T04:26:48;101164.59;;;13.63;100.00
58243;BME280;50118;53.232;8.252;2023-07-13T04:29:13;101164.44;;;13.64;100.00
58243;BME280;50118;53.232;8.252;2023-07-13T04:31:38;101161.25;;;13.61;100.00
58243;BME280;50118;53.232;8.252;2023-07-13T04:34:04;101165.28;;;13.65;100.00
58243;BME280;50118;53.232;8.252;2023-07-13T04:36:29;101166.66;;;13.69;100.00
58243;BME280;50118;53.232;8.252;2023-07-13T04:38:55;101174.34;;;13.72;100.00
58243;BME280;50118;53.232;8.252;2023-07-13T04:41:21;101172.41;;;13.74;100.00
58243;BME280;50118;53.232;8.252;2023-07-13T04:43:47;101174.81;;;13.86;100.00
58243;BME280;50118;53.232;8.252;2023-07-13T04:46:15;101173.50;;;13.90;100.00
58243;BME280;50118;53.232;8.252;2023-07-13T04:48:43;101167.13;;;13.91;100.00
58243;BME280;50118;53.232;8.252;2023-07-13T04:51:08;101169.34;;;13.95;100.00
58243;BME280;50118;53.232;8.252;2023-07-13T04:53:34;101172.00;;;14.13;100.00
58243;BME280;50118;53.232;8.252;2023-07-13T04:56:00;101175.03;;;14.18;100.00
58243;BME280;50118;53.232;8.252;2023-07-13T04:58:25;101180.06;;;14.22;100.00
58243;BME280;50118;53.232;8.252;2023-07-13T05:00:51;101182.78;;;14.30;100.00
58243;BME280;50118;53.232;8.252;2023-07-13T05:03:17;101172.38;;;14.27;100.00
58243;BME280;50118;53.232;8.252;2023-07-13T05:05:42;101174.66;;;14.39;100.00
58243;BME280;50118;53.232;8.252;2023-07-13T05:08:07;101168.28;;;14.41;100.00
58243;BME280;50118;53.232;8.252;2023-07-13T05:10:34;101182.25;;;14.52;100.00
58243;BME280;50118;53.232;8.252;2023-07-13T05:13:00;101176.63;;;14.64;100.00
58243;BME280;50118;53.232;8.252;2023-07-13T05:15:26;101182.03;;;14.72;100.00
58243;BME280;50118;53.232;8.252;2023-07-13T05:17:51;101180.69;;;14.68;100.00
58243;BME280;50118;53.232;8.252;2023-07-13T05:20:18;101182.03;;;14.72;100.00
58243;BME280;50118;53.232;8.252;2023-07-13T05:22:44;101182.41;;;14.85;100.00
58243;BME280;50118;53.232;8.252;2023-07-13T05:25:12;101185.38;;;14.74;100.00
58243;BME280;50118;53.232;8.252;2023-07-13T05:27:38;101191.75;;;14.73;100.00
58243;BME280;50118;53.232;8.252;2023-07-13T05:30:04;101195.66;;;14.87;100.00
58243;BME280;50118;53.232;8.252;2023-07-13T05:32:29;101193.66;;;14.89;100.00
58243;BME280;50118;53.232;8.252;2023-07-13T05:34:55;101195.84;;;14.93;100.00
58243;BME280;50118;53.232;8.252;2023-07-13T05:37:21;101205.56;;;14.94;100.00
58243;BME280;50118;53.232;8.252;2023-07-13T05:39:46;101196.03;;;15.08;100.00
58243;BME280;50118;53.232;8.252;2023-07-13T05:42:12;101202.63;;;15.14;100.00
58243;BME280;50118;53.232;8.252;2023-07-13T05:44:37;101204.16;;;15.25;100.00
58243;BME280;50118;53.232;8.252;2023-07-13T05:47:03;101206.31;;;15.21;100.00
58243;BME280;50118;53.232;8.252;2023-07-13T05:49:29;101203.81;;;15.28;100.00
58243;BME280;50118;53.232;8.252;2023-07-13T05:51:56;101213.75;;;15.52;100.00
58243;BME280;50118;53.232;8.252;2023-07-13T05:54:21;101208.25;;;15.70;100.00
58243;BME280;50118;53.232;8.252;2023-07-13T05:56:53;101217.84;;;15.89;100.00
58243;BME280;50118;53.232;8.252;2023-07-13T05:59:18;101220.16;;;16.00;100.00
58243;BME280;50118;53.232;8.252;2023-07-13T06:01:44;101229.41;;;15.90;100.00
58243;BME280;50118;53.232;8.252;2023-07-13T06:04:17;101230.94;;;15.84;100.00
58243;BME280;50118;53.232;8.252;2023-07-13T06:07:05;101221.34;;;15.90;100.00
58243;BME280;50118;53.232;8.252;2023-07-13T06:16:31;101225.31;;;19.55;100.00
58243;BME280;50118;53.232;8.252;2023-07-13T06:18:56;101235.13;;;19.20;99.71
58243;BME280;50118;53.232;8.252;2023-07-13T06:21:23;101228.53;;;19.66;98.16
58243;BME280;50118;53.232;8.252;2023-07-13T06:23:49;101237.81;;;20.28;94.51
58243;BME280;50118;53.232;8.252;2023-07-13T06:26:16;101241.00;;;20.38;91.40
58243;BME280;50118;53.232;8.252;2023-07-13T06:28:41;101242.03;;;19.44;97.18
58243;BME280;50118;53.232;8.252;2023-07-13T06:31:09;101236.81;;;19.64;94.68
58243;BME280;50118;53.232;8.252;2023-07-13T06:33:35;101239.00;;;20.19;92.75
58243;BME280;50118;53.232;8.252;2023-07-13T06:36:02;101240.31;;;20.29;89.96
58243;BME280;50118;53.232;8.252;2023-07-13T06:38:27;101248.13;;;20.74;88.78
58243;BME280;50118;53.232;8.252;2023-07-13T06:40:53;101242.50;;;20.47;88.23
58243;BME280;50118;53.232;8.252;2023-07-13T06:43:18;101249.75;;;20.68;91.39
58243;BME280;50118;53.232;8.252;2023-07-13T06:45:46;101248.09;;;21.22;84.75
58243;BME280;50118;53.232;8.252;2023-07-13T06:48:15;101255.84;;;21.25;84.59
58243;BME280;50118;53.232;8.252;2023-07-13T06:50:42;101252.63;;;22.44;80.49
58243;BME280;50118;53.232;8.252;2023-07-13T06:53:11;101261.84;;;22.43;80.93
58243;BME280;50118;53.232;8.252;2023-07-13T06:55:37;101256.53;;;22.74;74.95
58243;BME280;50118;53.232;8.252;2023-07-13T06:58:03;101256.00;;;23.49;74.16
58243;BME280;50118;53.232;8.252;2023-07-13T07:00:29;101262.03;;;22.21;77.38
58243;BME280;50118;53.232;8.252;2023-07-13T07:02:54;101262.22;;;21.59;80.35
58243;BME280;50118;53.232;8.252;2023-07-13T07:05:20;101258.44;;;21.60;84.15
58243;BME280;50118;53.232;8.252;2023-07-13T07:07:47;101255.38;;;22.10;78.63
58243;BME280;50118;53.232;8.252;2023-07-13T07:10:13;101256.25;;;23.09;76.99
58243;BME280;50118;53.232;8.252;2023-07-13T07:12:39;101255.38;;;22.04;77.70
58243;BME280;50118;53.232;8.252;2023-07-13T07:15:04;101258.06;;;22.50;76.81
58243;BME280;50118;53.232;8.252;2023-07-13T07:17:30;101253.53;;;23.09;74.04
58243;BME280;50118;53.232;8.252;2023-07-13T07:19:55;101252.75;;;23.34;72.52
58243;BME280;50118;53.232;8.252;2023-07-13T07:22:21;101254.75;;;23.52;71.32
58243;BME280;50118;53.232;8.252;2023-07-13T07:24:46;101254.91;;;23.25;73.60
58243;BME280;50118;53.232;8.252;2023-07-13T07:27:12;101259.13;;;23.21;73.67
58243;BME280;50118;53.232;8.252;2023-07-13T07:29:37;101248.97;;;23.42;74.45
58243;BME280;50118;53.232;8.252;2023-07-13T07:32:03;101257.00;;;23.94;71.32
58243;BME280;50118;53.232;8.252;2023-07-13T07:34:29;101262.72;;;22.95;72.34
58243;BME280;50118;53.232;8.252;2023-07-13T07:36:58;101251.16;;;23.58;69.57
58243;BME280;50118;53.232;8.252;2023-07-13T07:39:24;101259.22;;;22.88;73.66
58243;BME280;50118;53.232;8.252;2023-07-13T07:41:49;101256.53;;;23.65;73.17
58243;BME280;50118;53.232;8.252;2023-07-13T07:44:15;101252.75;;;23.34;71.75
58243;BME280;50118;53.232;8.252;2023-07-13T07:46:40;101262.59;;;23.35;69.15
58243;BME280;50118;53.232;8.252;2023-07-13T07:49:06;101253.69;;;23.21;69.71
58243;BME280;50118;53.232;8.252;2023-07-13T07:51:31;101252.25;;;22.00;77.31
58243;BME280;50118;53.232;8.252;2023-07-13T07:53:57;101263.44;;;22.70;73.71
58243;BME280;50118;53.232;8.252;2023-07-13T07:56:22;101261.72;;;23.41;72.76
58243;BME280;50118;53.232;8.252;2023-07-13T07:58:48;101266.72;;;23.44;71.14
58243;BME280;50118;53.232;8.252;2023-07-13T08:01:13;101268.63;;;23.37;70.11
58243;BME280;50118;53.232;8.252;2023-07-13T08:03:38;101269.34;;;22.27;74.05
58243;BME280;50118;53.232;8.252;2023-07-13T08:06:04;101266.88;;;23.49;69.21
58243;BME280;50118;53.232;8.252;2023-07-13T08:08:29;101259.94;;;24.17;68.56
58243;BME280;50118;53.232;8.252;2023-07-13T08:10:55;101260.22;;;23.07;70.75
58243;BME280;50118;53.232;8.252;2023-07-13T08:13:20;101272.97;;;23.06;72.80
58243;BME280;50118;53.232;8.252;2023-07-13T08:15:46;101261.13;;;22.81;74.43
58243;BME280;50118;53.232;8.252;2023-07-13T08:18:11;101265.59;;;23.59;71.67
58243;BME280;50118;53.232;8.252;2023-07-13T08:20:39;101267.41;;;23.65;70.21
58243;BME280;50118;53.232;8.252;2023-07-13T08:23:06;101270.16;;;23.97;70.01
58243;BME280;50118;53.232;8.252;2023-07-13T08:25:32;101270.38;;;23.63;71.24
58243;BME280;50118;53.232;8.252;2023-07-13T08:27:57;101265.88;;;23.82;68.63
58243;BME280;50118;53.232;8.252;2023-07-13T08:30:23;101265.88;;;23.82;68.68
58243;BME280;50118;53.232;8.252;2023-07-13T08:32:48;101268.78;;;23.81;67.99
58243;BME280;50118;53.232;8.252;2023-07-13T08:35:14;101268.94;;;24.18;65.68
58243;BME280;50118;53.232;8.252;2023-07-13T08:37:41;101262.66;;;24.17;65.31
58243;BME280;50118;53.232;8.252;2023-07-13T08:40:09;101268.84;;;24.50;64.86
58243;BME280;50118;53.232;8.252;2023-07-13T08:42:45;101266.91;;;24.94;61.68
58243;BME280;50118;53.232;8.252;2023-07-13T08:45:25;101274.56;;;25.04;59.90
58243;BME280;50118;53.232;8.252;2023-07-13T08:48:08;101268.59;;;24.58;59.12
58243;BME280;50118;53.232;8.252;2023-07-13T08:50:49;101272.16;;;24.33;62.92
58243;BME280;50118;53.232;8.252;2023-07-13T08:53:16;101273.31;;;24.44;61.87
58243;BME280;50118;53.232;8.252;2023-07-13T08:55:43;101274.09;;;24.26;61.18
58243;BME280;50118;53.232;8.252;2023-07-13T08:58:12;101269.56;;;24.82;62.16
58243;BME280;50118;53.232;8.252;2023-07-13T09:00:48;101266.41;;;23.59;65.59
58243;BME280;50118;53.232;8.252;2023-07-13T09:03:23;101261.44;;;24.13;65.74
58243;BME280;50118;53.232;8.252;2023-07-13T09:05:55;101267.06;;;23.93;61.70
58243;BME280;50118;53.232;8.252;2023-07-13T09:16:12;101274.78;;;22.07;68.18
58243;BME280;50118;53.232;8.252;2023-07-13T09:18:42;101269.31;;;22.54;71.18
58243;BME280;50118;53.232;8.252;2023-07-13T09:21:15;101271.72;;;23.09;67.66
58243;BME280;50118;53.232;8.252;2023-07-13T09:23:41;101273.78;;;23.52;65.96
58243;BME280;50118;53.232;8.252;2023-07-13T09:26:13;101270.25;;;23.52;61.38
58243;BME280;50118;53.232;8.252;2023-07-13T09:28:42;101264.09;;;23.63;61.49
58243;BME280;50118;53.232;8.252;2023-07-13T09:31:22;101271.00;;;22.62;68.28
58243;BME280;50118;53.232;8.252;2023-07-13T09:33:49;101279.16;;;22.42;64.66
58243;BME280;50118;53.232;8.252;2023-07-13T09:36:22;101277.50;;;22.14;67.96
58243;BME280;50118;53.232;8.252;2023-07-13T09:38:57;101273.38;;;21.36;67.68
58243;BME280;50118;53.232;8.252;2023-07-13T09:41:31;101271.56;;;21.02;70.40
58243;BME280;50118;53.232;8.252;2023-07-13T09:44:14;101273.19;;;20.89;71.27
58243;BME280;50118;53.232;8.252;2023-07-13T09:47:00;101276.88;;;20.82;70.21
58243;BME280;50118;53.232;8.252;2023-07-13T09:49:29;101276.84;;;20.75;70.67
58243;BME280;50118;53.232;8.252;2023-07-13T09:52:00;101272.31;;;20.82;70.83
58243;BME280;50118;53.232;8.252;2023-07-13T09:54:27;101278.84;;;20.95;74.20
58243;BME280;50118;53.232;8.252;2023-07-13T09:56:58;101274.31;;;21.77;67.75
58243;BME280;50118;53.232;8.252;2023-07-13T09:59:29;101276.44;;;21.88;69.36
58243;BME280;50118;53.232;8.252;2023-07-13T10:01:55;101277.66;;;22.59;74.14
58243;BME280;50118;53.232;8.252;2023-07-13T10:04:29;101276.66;;;22.33;68.48
58243;BME280;50118;53.232;8.252;2023-07-13T10:07:07;101274.75;;;22.54;65.50
58243;BME280;50118;53.232;8.252;2023-07-13T10:09:33;101256.84;;;22.33;62.97
58243;BME280;50118;53.232;8.252;2023-07-13T10:11:58;101270.06;;;22.88;64.50
58243;BME280;50118;53.232;8.252;2023-07-13T10:14:24;101274.66;;;23.07;66.36
58243;BME280;50118;53.232;8.252;2023-07-13T10:16:56;101281.84;;;22.68;63.15
58243;BME280;50118;53.232;8.252;2023-07-13T10:19:26;101274.78;;;22.00;62.77
58243;BME280;50118;53.232;8.252;2023-07-13T10:22:01;101282.94;;;22.34;61.11
58243;BME280;50118;53.232;8.252;2023-07-13T10:24:32;101272.16;;;22.92;58.76
58243;BME280;50118;53.232;8.252;2023-07-13T10:27:17;101276.16;;;24.05;56.13
58243;BME280;50118;53.232;8.252;2023-07-13T10:29:56;101289.53;;;24.57;53.40
58243;BME280;50118;53.232;8.252;2023-07-13T10:32:24;101298.31;;;24.59;52.30
58243;BME280;50118;53.232;8.252;2023-07-13T10:34:50;101285.75;;;25.14;49.62
58243;BME280;50118;53.232;8.252;2023-07-13T10:37:26;101283.75;;;24.47;51.90
58243;BME280;50118;53.232;8.252;2023-07-13T10:39:54;101293.56;;;24.30;52.03
58243;BME280;50118;53.232;8.252;2023-07-13T10:42:37;101310.50;;;22.37;56.30
58243;BME280;50118;53.232;8.252;2023-07-13T10:45:19;101311.94;;;22.47;56.58
58243;BME280;50118;53.232;8.252;2023-07-13T10:47:53;101315.69;;;22.46;58.69
58243;BME280;50118;53.232;8.252;2023-07-13T10:50:25;101317.75;;;21.97;60.08
58243;BME280;50118;53.232;8.252;2023-07-13T10:52:53;101317.66;;;21.63;59.85
58243;BME280;50118;53.232;8.252;2023-07-13T10:55:36;101324.47;;;20.98;62.90
58243;BME280;50118;53.232;8.252;2023-07-13T10:58:15;101341.19;;;20.51;66.42
58243;BME280;50118;53.232;8.252;2023-07-13T11:00:49;101350.56;;;20.27;67.44
58243;BME280;50118;53.232;8.252;2023-07-13T11:03:19;101371.50;;;19.97;68.21
58243;BME280;50118;53.232;8.252;2023-07-13T11:05:49;101371.78;;;19.51;73.25
58243;BME280;50118;53.232;8.252;2023-07-13T11:08:35;101386.81;;;18.71;83.97
58243;BME280;50118;53.232;8.252;2023-07-13T11:11:42;101389.06;;;17.98;87.21
58243;BME280;50118;53.232;8.252;2023-07-13T11:18:03;101397.84;;;17.04;100.00
58243;BME280;50118;53.232;8.252;2023-07-13T11:20:53;101392.50;;;16.96;100.00
58243;BME280;50118;53.232;8.252;2023-07-13T11:29:48;101411.00;;;17.47;100.00
58243;BME280;50118;53.232;8.252;2023-07-13T11:32:48;101399.41;;;17.46;98.39
58243;BME280;50118;53.232;8.252;2023-07-13T11:35:26;101403.34;;;17.35;99.78
58243;BME280;50118;53.232;8.252;2023-07-13T11:41:23;101400.53;;;17.04;100.00
58243;BME280;50118;53.232;8.252;2023-07-13T11:43:50;101403.44;;;17.03;100.00
58243;BME280;50118;53.232;8.252;2023-07-13T11:46:30;101418.59;;;17.43;100.00
58243;BME280;50118;53.232;8.252;2023-07-13T11:48:55;101419.63;;;17.42;100.00
58243;BME280;50118;53.232;8.252;2023-07-13T11:51:31;101412.84;;;17.54;100.00
58243;BME280;50118;53.232;8.252;2023-07-13T11:54:02;101411.91;;;17.31;100.00
58243;BME280;50118;53.232;8.252;2023-07-13T11:56:29;101408.72;;;17.75;100.00
58243;BME280;50118;53.232;8.252;2023-07-13T11:59:04;101399.44;;;18.55;100.00
58243;BME280;50118;53.232;8.252;2023-07-13T12:01:32;101395.28;;;18.67;92.39
58243;BME280;50118;53.232;8.252;2023-07-13T12:04:21;101405.41;;;18.65;93.54
58243;BME280;50118;53.232;8.252;2023-07-13T12:06:57;101412.41;;;19.42;89.95
58243;BME280;50118;53.232;8.252;2023-07-13T12:09:26;101412.56;;;19.56;85.99
58243;BME280;50118;53.232;8.252;2023-07-13T12:11:53;101415.91;;;19.88;83.34
58243;BME280;50118;53.232;8.252;2023-07-13T12:14:19;101424.84;;;20.68;83.42
58243;BME280;50118;53.232;8.252;2023-07-13T12:16:47;101422.41;;;21.01;79.14
58243;BME280;50118;53.232;8.252;2023-07-13T12:19:28;101431.03;;;21.47;78.41
58243;BME280;50118;53.232;8.252;2023-07-13T12:21:56;101417.81;;;21.78;73.67
58243;BME280;50118;53.232;8.252;2023-07-13T12:24:23;101426.25;;;22.04;71.31
58243;BME280;50118;53.232;8.252;2023-07-13T12:26:55;101429.69;;;22.66;70.38
58243;BME280;50118;53.232;8.252;2023-07-13T12:29:21;101441.41;;;22.66;70.10
58243;BME280;50118;53.232;8.252;2023-07-13T12:31:48;101430.94;;;22.90;68.79
58243;BME280;50118;53.232;8.252;2023-07-13T12:34:22;101422.19;;;22.61;69.49
58243;BME280;50118;53.232;8.252;2023-07-13T12:39:31;101428.69;;;21.85;58.33
58243;BME280;50118;53.232;8.252;2023-07-13T12:44:46;101431.38;;;22.67;51.50
58243;BME280;50118;53.232;8.252;2023-07-13T12:47:13;101418.78;;;22.19;55.41
58243;BME280;50118;53.232;8.252;2023-07-13T12:49:48;101427.59;;;22.68;54.19
58243;BME280;50118;53.232;8.252;2023-07-13T12:52:29;101425.41;;;22.03;51.66
58243;BME280;50118;53.232;8.252;2023-07-13T12:55:07;101426.03;;;21.98;57.14
58243;BME280;50118;53.232;8.252;2023-07-13T12:57:50;101423.28;;;21.85;58.73
58243;BME280;50118;53.232;8.252;2023-07-13T13:00:26;101421.34;;;22.47;55.88
58243;BME280;50118;53.232;8.252;2023-07-13T13:02:56;101422.16;;;22.94;58.44
58243;BME280;50118;53.232;8.252;2023-07-13T13:05:22;101428.03;;;22.71;54.59
58243;BME280;50118;53.232;8.252;2023-07-13T13:07:50;101434.69;;;22.35;58.29
58243;BME280;50118;53.232;8.252;2023-07-13T13:10:15;101439.88;;;21.69;58.86
58243;BME280;50118;53.232;8.252;2023-07-13T13:12:41;101440.75;;;21.06;65.19
58243;BME280;50118;53.232;8.252;2023-07-13T13:15:10;101449.91;;;20.55;70.65
58243;BME280;50118;53.232;8.252;2023-07-13T13:17:36;101459.75;;;20.41;76.36
58243;BME280;50118;53.232;8.252;2023-07-13T13:20:23;101460.53;;;19.99;91.07
58243;BME280;50118;53.232;8.252;2023-07-13T13:22:48;101461.78;;;18.60;94.21
58243;BME280;50118;53.232;8.252;2023-07-13T13:25:15;101446.72;;;18.20;92.72